Time;durP1;ratioP1;P1;durP2;ratioP2;P2;SDS_P1;SDS_P2;PMS_P1;PMS_P2;Temp;Humidity;BMP_temperature;BMP_pressure;BME280_temperature;BME280_humidity;BME280_pressure;Samples;Min_cycle;Max_cycle;Signal;HPM_P1;HPM_P2
2021/07/23 00:01:55;;;;;;;14.97;10.37;;;;;;;;;;5096362;28;20428;-69
2021/07/23 00:04:21;;;;;;;19.13;11.23;;;;;;;;;;5096557;28;20432;-70
2021/07/23 00:06:49;;;;;;;15.70;10.67;;;;;;;;;;5111296;28;20481;-69
2021/07/23 00:09:15;;;;;;;16.10;10.40;;;;;;;;;;5117300;28;20850;-69
2021/07/23 00:11:41;;;;;;;23.83;11.80;;;;;;;;;;5098767;28;20423;-70
2021/07/23 00:14:07;;;;;;;14.10;10.60;;;;;;;;;;5097583;28;20431;-70
2021/07/23 00:16:33;;;;;;;19.40;10.83;;;;;;;;;;5095024;28;20951;-70
2021/07/23 00:18:59;;;;;;;13.00;10.17;;;;;;;;;;5096717;28;20495;-69
2021/07/23 00:21:25;;;;;;;15.10;10.70;;;;;;;;;;5083893;28;20543;-69
2021/07/23 00:23:51;;;;;;;20.33;11.27;;;;;;;;;;5076603;28;20389;-70
2021/07/23 00:26:21;;;;;;;15.13;11.07;;;;;;;;;;5076383;28;20515;-68
2021/07/23 00:28:47;;;;;;;15.50;10.87;;;;;;;;;;5076738;28;20431;-69
2021/07/23 00:31:13;;;;;;;17.03;10.50;;;;;;;;;;5089111;28;20430;-69
2021/07/23 00:33:39;;;;;;;18.80;11.87;;;;;;;;;;5096825;28;20411;-72
2021/07/23 00:36:05;;;;;;;15.70;10.50;;;;;;;;;;5083070;28;20445;-69
2021/07/23 00:38:31;;;;;;;17.70;11.23;;;;;;;;;;5082068;28;20428;-69
2021/07/23 00:40:57;;;;;;;15.70;11.23;;;;;;;;;;5095473;28;20554;-69
2021/07/23 00:43:23;;;;;;;14.00;10.80;;;;;;;;;;5096622;28;20533;-69
2021/07/23 00:45:50;;;;;;;16.23;10.13;;;;;;;;;;5095236;28;20865;-69
2021/07/23 00:48:16;;;;;;;18.13;10.47;;;;;;;;;;5096507;28;20400;-70
2021/07/23 00:50:42;;;;;;;22.27;11.77;;;;;;;;;;5088497;28;20435;-69
2021/07/23 00:53:09;;;;;;;20.50;12.67;;;;;;;;;;5076243;28;20933;-69
2021/07/23 00:55:35;;;;;;;16.23;11.90;;;;;;;;;;5081952;28;20808;-69
2021/07/23 00:58:02;;;;;;;15.30;11.23;;;;;;;;;;5096661;28;20416;-69
2021/07/23 01:00:28;;;;;;;14.27;10.23;;;;;;;;;;5089068;28;20874;-69
2021/07/23 01:02:55;;;;;;;14.70;10.40;;;;;;;;;;5075910;28;20911;-69
2021/07/23 01:05:21;;;;;;;20.20;11.00;;;;;;;;;;5078833;28;20879;-69
2021/07/23 01:07:47;;;;;;;13.37;9.53;;;;;;;;;;5096326;28;20444;-69
2021/07/23 01:10:13;;;;;;;17.37;11.87;;;;;;;;;;5094323;28;20933;-69
2021/07/23 01:12:39;;;;;;;15.40;10.77;;;;;;;;;;5093429;28;20533;-70
2021/07/23 01:15:06;;;;;;;14.67;11.70;;;;;;;;;;5089741;28;20518;-69
2021/07/23 01:17:32;;;;;;;15.50;11.50;;;;;;;;;;5093800;28;20438;-69
2021/07/23 01:19:58;;;;;;;17.60;11.00;;;;;;;;;;5094608;28;20805;-69
2021/07/23 01:22:28;;;;;;;18.17;12.80;;;;;;;;;;5100927;28;20423;-69
2021/07/23 01:24:54;;;;;;;18.70;12.73;;;;;;;;;;5116239;28;20452;-69
2021/07/23 01:27:21;;;;;;;14.37;10.20;;;;;;;;;;5085466;28;20433;-69
2021/07/23 01:29:47;;;;;;;17.53;10.77;;;;;;;;;;5075665;28;20901;-69
2021/07/23 01:32:13;;;;;;;16.30;11.90;;;;;;;;;;5088613;28;20455;-70
2021/07/23 01:34:39;;;;;;;15.37;11.47;;;;;;;;;;5094788;28;20427;-71
2021/07/23 01:37:06;;;;;;;16.93;11.40;;;;;;;;;;5091765;28;20458;-70
2021/07/23 01:39:36;;;;;;;16.40;11.50;;;;;;;;;;5095550;28;20404;-69
2021/07/23 01:42:02;;;;;;;16.30;11.57;;;;;;;;;;5083629;28;20425;-69
2021/07/23 01:44:28;;;;;;;18.63;12.20;;;;;;;;;;5075205;28;20902;-69
2021/07/23 01:46:54;;;;;;;16.40;13.07;;;;;;;;;;5083925;28;20450;-69
2021/07/23 01:49:20;;;;;;;18.83;12.77;;;;;;;;;;5095689;28;20399;-69
2021/07/23 01:51:46;;;;;;;14.90;10.93;;;;;;;;;;5086962;28;20889;-70
2021/07/23 01:54:12;;;;;;;15.27;11.90;;;;;;;;;;5075238;28;20398;-69
2021/07/23 01:56:38;;;;;;;15.93;12.23;;;;;;;;;;5081852;28;20463;-69
2021/07/23 01:59:04;;;;;;;16.50;12.83;;;;;;;;;;5095360;28;20742;-69
2021/07/23 02:01:30;;;;;;;17.77;11.47;;;;;;;;;;5087351;28;20791;-69
2021/07/23 02:03:56;;;;;;;19.03;13.63;;;;;;;;;;5075234;28;20404;-69
2021/07/23 02:06:22;;;;;;;17.37;10.87;;;;;;;;;;5091718;22;20488;-72
2021/07/23 02:08:48;;;;;;;17.23;12.03;;;;;;;;;;5094674;28;20955;-72
2021/07/23 02:11:14;;;;;;;18.13;11.77;;;;;;;;;;5090018;28;20895;-72
2021/07/23 02:13:40;;;;;;;16.33;12.10;;;;;;;;;;5074446;28;20393;-71
2021/07/23 02:16:06;;;;;;;16.87;11.67;;;;;;;;;;5073078;28;20429;-72
2021/07/23 02:18:32;;;;;;;17.13;11.00;;;;;;;;;;5112092;28;20506;-71
2021/07/23 02:20:58;;;;;;;17.93;12.30;;;;;;;;;;5114029;28;20507;-72
2021/07/23 02:23:24;;;;;;;18.17;12.77;;;;;;;;;;5094170;28;20451;-72
2021/07/23 02:25:50;;;;;;;16.80;11.60;;;;;;;;;;5094460;28;20758;-72
2021/07/23 02:28:16;;;;;;;15.00;11.60;;;;;;;;;;5093183;28;20482;-72
2021/07/23 02:30:42;;;;;;;15.53;11.57;;;;;;;;;;5094188;28;20880;-71
2021/07/23 02:33:09;;;;;;;17.27;11.17;;;;;;;;;;5106305;28;20510;-72
2021/07/23 02:35:35;;;;;;;14.27;10.83;;;;;;;;;;5114328;28;20427;-72
2021/07/23 02:38:01;;;;;;;14.00;10.93;;;;;;;;;;5096710;28;20455;-72
2021/07/23 02:40:27;;;;;;;25.63;12.57;;;;;;;;;;5093990;28;20448;-72
2021/07/23 02:42:53;;;;;;;17.10;11.80;;;;;;;;;;5093338;28;20424;-71
2021/07/23 02:45:19;;;;;;;15.60;12.77;;;;;;;;;;5088219;28;20430;-71
2021/07/23 02:47:46;;;;;;;16.63;12.57;;;;;;;;;;5088271;28;20439;-71
2021/07/23 02:50:12;;;;;;;20.03;13.60;;;;;;;;;;5093875;28;20409;-70
2021/07/23 02:52:38;;;;;;;16.63;12.40;;;;;;;;;;5092441;28;20427;-70
2021/07/23 02:55:04;;;;;;;16.17;12.13;;;;;;;;;;5093772;28;20395;-70
2021/07/23 02:57:30;;;;;;;17.83;12.03;;;;;;;;;;5098532;28;20931;-71
2021/07/23 02:59:56;;;;;;;17.47;11.67;;;;;;;;;;5111724;28;20557;-70
2021/07/23 03:02:22;;;;;;;17.77;12.30;;;;;;;;;;5103243;28;20983;-71
2021/07/23 03:04:48;;;;;;;16.50;11.53;;;;;;;;;;5094161;28;20475;-71
2021/07/23 03:07:14;;;;;;;18.73;12.23;;;;;;;;;;5092556;28;20459;-71
2021/07/23 03:09:40;;;;;;;17.50;12.17;;;;;;;;;;5093572;28;20399;-71
2021/07/23 03:12:07;;;;;;;16.63;10.47;;;;;;;;;;5085909;28;20574;-71
2021/07/23 03:14:33;;;;;;;20.03;12.03;;;;;;;;;;5073162;28;20397;-71
2021/07/23 03:16:59;;;;;;;15.80;11.77;;;;;;;;;;5073181;28;20444;-71
2021/07/23 03:19:25;;;;;;;16.20;10.60;;;;;;;;;;5073669;28;20393;-71
2021/07/23 03:21:54;;;;;;;16.90;9.83;;;;;;;;;;5076367;28;20959;-71
2021/07/23 03:24:20;;;;;;;14.50;9.97;;;;;;;;;;5093994;28;20907;-71
2021/07/23 03:26:46;;;;;;;14.00;10.40;;;;;;;;;;5092345;28;20876;-71
2021/07/23 03:29:12;;;;;;;17.83;11.53;;;;;;;;;;5093198;28;20392;-71
2021/07/23 03:31:38;;;;;;;15.50;11.53;;;;;;;;;;5090847;28;20431;-71
2021/07/23 03:34:04;;;;;;;18.17;12.57;;;;;;;;;;5087820;28;20809;-71
2021/07/23 03:36:30;;;;;;;16.07;11.27;;;;;;;;;;5092335;28;20495;-71
2021/07/23 03:38:56;;;;;;;18.63;11.77;;;;;;;;;;5072854;28;20405;-71
2021/07/23 03:41:22;;;;;;;20.47;12.93;;;;;;;;;;5072758;28;20963;-71
2021/07/23 03:43:48;;;;;;;17.63;11.10;;;;;;;;;;5072821;28;20455;-71
2021/07/23 03:46:14;;;;;;;17.23;12.47;;;;;;;;;;5076611;28;20455;-71
2021/07/23 03:48:40;;;;;;;16.67;11.30;;;;;;;;;;5094250;28;20538;-71
2021/07/23 03:51:06;;;;;;;15.10;12.03;;;;;;;;;;5085194;28;20428;-71
2021/07/23 03:53:32;;;;;;;17.67;11.43;;;;;;;;;;5072878;28;20432;-71
2021/07/23 03:55:58;;;;;;;14.43;11.33;;;;;;;;;;5073017;28;20420;-71
2021/07/23 03:58:25;;;;;;;15.40;11.60;;;;;;;;;;5086981;28;20945;-71
2021/07/23 04:00:51;;;;;;;20.67;12.70;;;;;;;;;;5093066;28;20459;-71
2021/07/23 04:03:17;;;;;;;21.70;12.20;;;;;;;;;;5092188;28;20490;-71
2021/07/23 04:05:44;;;;;;;25.53;13.33;;;;;;;;;;5092814;28;20522;-71
2021/07/23 04:08:10;;;;;;;22.50;13.43;;;;;;;;;;5091945;28;20427;-71
2021/07/23 04:10:36;;;;;;;17.67;12.47;;;;;;;;;;5092893;28;20410;-71
2021/07/23 04:13:03;;;;;;;18.60;11.90;;;;;;;;;;5091818;28;20514;-71
2021/07/23 04:15:29;;;;;;;16.97;10.80;;;;;;;;;;5092616;28;20443;-71
2021/07/23 04:17:54;;;;;;;17.10;12.47;;;;;;;;;;5093578;28;20852;-71
2021/07/23 04:20:20;;;;;;;16.10;11.83;;;;;;;;;;5101277;28;20538;-71
2021/07/23 04:22:46;;;;;;;22.33;11.20;;;;;;;;;;5099560;28;20511;-71
2021/07/23 04:25:13;;;;;;;16.13;10.90;;;;;;;;;;5091501;28;20843;-71
2021/07/23 04:27:39;;;;;;;19.50;11.30;;;;;;;;;;5091941;28;20450;-71
2021/07/23 04:30:05;;;;;;;16.90;12.93;;;;;;;;;;5092728;28;20883;-71
2021/07/23 04:32:31;;;;;;;18.40;12.90;;;;;;;;;;5091570;28;20442;-71
2021/07/23 04:34:57;;;;;;;14.90;10.47;;;;;;;;;;5092641;28;20399;-71
2021/07/23 04:37:23;;;;;;;15.73;11.10;;;;;;;;;;5087601;28;20497;-71
2021/07/23 04:39:49;;;;;;;20.63;11.37;;;;;;;;;;5072345;28;20829;-71
2021/07/23 04:42:15;;;;;;;22.10;12.20;;;;;;;;;;5072250;28;20972;-71
2021/07/23 04:44:41;;;;;;;18.07;10.43;;;;;;;;;;5075780;28;20416;-71
2021/07/23 04:47:07;;;;;;;14.23;11.17;;;;;;;;;;5076096;28;20427;-71
2021/07/23 04:49:33;;;;;;;16.30;11.90;;;;;;;;;;5093743;28;20459;-71
2021/07/23 04:51:59;;;;;;;15.30;10.53;;;;;;;;;;5096319;28;20408;-71
2021/07/23 04:54:25;;;;;;;15.53;11.00;;;;;;;;;;5095227;28;20426;-71
2021/07/23 04:56:52;;;;;;;15.27;11.00;;;;;;;;;;5096452;28;20431;-71
2021/07/23 04:59:18;;;;;;;18.03;13.13;;;;;;;;;;5095702;28;20472;-71
2021/07/23 05:01:44;;;;;;;17.43;11.80;;;;;;;;;;5096035;28;20505;-71
2021/07/23 05:04:10;;;;;;;15.20;11.23;;;;;;;;;;5081773;28;20459;-71
2021/07/23 05:06:36;;;;;;;18.60;12.90;;;;;;;;;;5075657;28;20538;-71
2021/07/23 05:09:05;;;;;;;18.10;11.67;;;;;;;;;;5090494;28;20902;-71
2021/07/23 05:11:31;;;;;;;16.80;11.83;;;;;;;;;;5075559;28;20945;-71
2021/07/23 05:13:58;;;;;;;19.17;13.57;;;;;;;;;;5086126;28;20788;-71
2021/07/23 05:16:24;;;;;;;18.00;12.90;;;;;;;;;;5094464;28;20448;-71
2021/07/23 05:18:50;;;;;;;15.50;10.80;;;;;;;;;;5094644;28;20476;-71
2021/07/23 05:21:16;;;;;;;20.47;12.40;;;;;;;;;;5095543;28;20447;-71
2021/07/23 05:23:43;;;;;;;16.47;11.40;;;;;;;;;;5094747;28;20416;-71
2021/07/23 05:26:09;;;;;;;18.80;11.30;;;;;;;;;;5095604;28;20420;-71
2021/07/23 05:28:35;;;;;;;14.40;10.97;;;;;;;;;;5094481;28;20476;-71
2021/07/23 05:31:01;;;;;;;15.93;11.23;;;;;;;;;;5095392;28;20436;-71
2021/07/23 05:33:27;;;;;;;17.00;11.27;;;;;;;;;;5093463;28;20416;-71
2021/07/23 05:35:53;;;;;;;20.20;13.47;;;;;;;;;;5094089;28;20424;-71
2021/07/23 05:38:19;;;;;;;17.00;12.67;;;;;;;;;;5094317;28;20423;-71
2021/07/23 05:40:45;;;;;;;21.23;12.70;;;;;;;;;;5095227;28;20480;-71
2021/07/23 05:43:13;;;;;;;19.97;13.07;;;;;;;;;;5093716;28;20912;-71
2021/07/23 05:45:39;;;;;;;16.27;12.30;;;;;;;;;;5113282;28;20451;-71
2021/07/23 05:48:06;;;;;;;16.20;11.03;;;;;;;;;;5110220;28;20932;-71
2021/07/23 05:50:32;;;;;;;16.07;10.10;;;;;;;;;;5095170;28;20408;-71
2021/07/23 05:52:58;;;;;;;15.37;10.67;;;;;;;;;;5094169;28;20447;-72
2021/07/23 05:55:24;;;;;;;17.30;11.20;;;;;;;;;;5094320;28;20491;-72
2021/07/23 05:57:50;;;;;;;14.93;11.83;;;;;;;;;;5094075;28;20493;-71
2021/07/23 06:00:17;;;;;;;15.17;10.90;;;;;;;;;;5094699;28;20458;-71
2021/07/23 06:02:43;;;;;;;16.37;11.53;;;;;;;;;;5094857;28;20770;-71
2021/07/23 06:05:09;;;;;;;16.90;11.57;;;;;;;;;;5093781;28;20424;-71
2021/07/23 06:07:38;;;;;;;17.27;11.93;;;;;;;;;;5094571;28;20549;-71
2021/07/23 06:10:04;;;;;;;18.50;13.43;;;;;;;;;;5093545;28;20431;-71
2021/07/23 06:12:30;;;;;;;16.53;11.57;;;;;;;;;;5094729;28;20403;-71
2021/07/23 06:14:56;;;;;;;16.43;11.87;;;;;;;;;;5093427;28;20911;-71
2021/07/23 06:17:22;;;;;;;16.00;11.57;;;;;;;;;;5094468;28;20511;-71
2021/07/23 06:19:48;;;;;;;17.43;12.77;;;;;;;;;;5078553;28;20425;-72
2021/07/23 06:22:17;;;;;;;16.83;11.60;;;;;;;;;;5084709;28;20430;-71
2021/07/23 06:24:44;;;;;;;15.97;11.40;;;;;;;;;;5098256;28;20979;-71
2021/07/23 06:27:10;;;;;;;16.60;12.03;;;;;;;;;;5094459;28;20568;-71
2021/07/23 06:29:36;;;;;;;18.13;13.13;;;;;;;;;;5079868;28;20424;-71
2021/07/23 06:32:02;;;;;;;16.57;12.60;;;;;;;;;;5073805;28;20413;-71
2021/07/23 06:34:28;;;;;;;23.90;13.03;;;;;;;;;;5074135;28;20485;-71
2021/07/23 06:36:54;;;;;;;16.30;12.00;;;;;;;;;;5072418;28;20909;-71
2021/07/23 06:39:20;;;;;;;18.23;12.00;;;;;;;;;;5083928;28;20435;-71
2021/07/23 06:41:46;;;;;;;17.20;12.57;;;;;;;;;;5093886;28;20447;-71
2021/07/23 06:44:13;;;;;;;17.57;12.17;;;;;;;;;;5092961;28;20428;-71
2021/07/23 06:46:39;;;;;;;29.03;12.13;;;;;;;;;;5092522;28;20484;-72
2021/07/23 06:49:05;;;;;;;14.60;12.30;;;;;;;;;;5093274;28;20423;-72
2021/07/23 06:51:31;;;;;;;17.17;11.40;;;;;;;;;;5094545;28;20415;-71
2021/07/23 06:53:59;;;;;;;15.20;11.73;;;;;;;;;;5091797;28;20430;-72
2021/07/23 06:56:25;;;;;;;19.80;10.83;;;;;;;;;;5094682;28;20916;-71
2021/07/23 06:58:51;;;;;;;16.90;11.33;;;;;;;;;;5093120;28;20833;-72
2021/07/23 07:01:17;;;;;;;15.80;11.13;;;;;;;;;;5093752;28;20549;-72
2021/07/23 07:03:43;;;;;;;17.80;13.10;;;;;;;;;;5093436;28;20449;-72
2021/07/23 07:06:09;;;;;;;17.70;11.03;;;;;;;;;;5092517;28;20447;-72
2021/07/23 07:08:35;;;;;;;15.60;10.83;;;;;;;;;;5093286;28;20396;-71
2021/07/23 07:11:01;;;;;;;18.00;12.30;;;;;;;;;;5092202;28;20424;-71
2021/07/23 07:13:27;;;;;;;17.13;11.33;;;;;;;;;;5093426;28;20395;-71
2021/07/23 07:15:53;;;;;;;15.17;11.20;;;;;;;;;;5092137;28;20450;-71
2021/07/23 07:18:19;;;;;;;16.97;12.80;;;;;;;;;;5087954;28;20433;-72
2021/07/23 07:20:45;;;;;;;17.53;11.23;;;;;;;;;;5088736;28;20451;-71
2021/07/23 07:23:11;;;;;;;18.53;11.70;;;;;;;;;;5093279;28;20469;-71
2021/07/23 07:25:37;;;;;;;20.37;12.03;;;;;;;;;;5077804;28;20963;-71
2021/07/23 07:28:03;;;;;;;16.37;11.57;;;;;;;;;;5073090;28;20404;-71
2021/07/23 07:30:29;;;;;;;12.83;10.27;;;;;;;;;;5086209;28;20423;-71
2021/07/23 07:32:56;;;;;;;17.50;11.70;;;;;;;;;;5093246;28;20770;-72
2021/07/23 07:35:22;;;;;;;15.53;11.73;;;;;;;;;;5092213;28;20432;-72
2021/07/23 07:37:48;;;;;;;17.47;12.30;;;;;;;;;;5093145;28;20482;-72
2021/07/23 07:40:15;;;;;;;16.97;12.13;;;;;;;;;;5092055;28;20452;-71
2021/07/23 07:42:41;;;;;;;19.03;11.80;;;;;;;;;;5092984;28;20410;-71
2021/07/23 07:45:07;;;;;;;15.77;13.07;;;;;;;;;;5090812;28;20420;-72
2021/07/23 07:47:33;;;;;;;15.40;11.70;;;;;;;;;;5093145;28;20420;-72
2021/07/23 07:49:59;;;;;;;15.63;12.20;;;;;;;;;;5094436;28;20492;-72
2021/07/23 07:52:25;;;;;;;15.30;12.00;;;;;;;;;;5113545;28;20498;-72
2021/07/23 07:54:52;;;;;;;15.17;12.10;;;;;;;;;;5104837;28;20428;-72
2021/07/23 07:57:18;;;;;;;13.17;11.50;;;;;;;;;;5093007;28;20422;-72
2021/07/23 07:59:44;;;;;;;16.67;11.10;;;;;;;;;;5087423;28;20428;-72
2021/07/23 08:02:10;;;;;;;20.57;12.90;;;;;;;;;;5072834;28;20405;-72
2021/07/23 08:04:37;;;;;;;15.20;11.60;;;;;;;;;;5076334;28;20423;-72
2021/07/23 08:07:06;;;;;;;12.73;9.70;;;;;;;;;;5090270;22;20496;-66
2021/07/23 08:09:47;;;;;;;14.93;10.23;;;;;;;;;;5036501;28;20432;-67
2021/07/23 08:12:13;;;;;;;15.53;10.03;;;;;;;;;;5032884;28;20925;-67
2021/07/23 08:14:39;;;;;;;16.60;11.07;;;;;;;;;;5040810;28;20424;-68
2021/07/23 08:17:05;;;;;;;13.30;10.27;;;;;;;;;;5072573;28;20424;-67
2021/07/23 08:19:31;;;;;;;12.40;9.97;;;;;;;;;;5074033;28;20424;-68
2021/07/23 08:21:57;;;;;;;14.60;10.30;;;;;;;;;;5062695;28;20869;-67
2021/07/23 08:24:23;;;;;;;12.43;10.00;;;;;;;;;;5047003;28;20418;-68
2021/07/23 08:26:49;;;;;;;18.60;12.03;;;;;;;;;;5076485;28;20912;-67
2021/07/23 08:29:15;;;;;;;12.50;9.37;;;;;;;;;;5074664;28;20400;-68
2021/07/23 08:31:41;;;;;;;16.53;11.53;;;;;;;;;;5076388;28;20993;-68
2021/07/23 08:34:07;;;;;;;14.97;9.33;;;;;;;;;;5076362;28;20637;-67
2021/07/23 08:36:33;;;;;;;12.47;9.80;;;;;;;;;;5054993;28;20528;-67
2021/07/23 08:38:59;;;;;;;13.50;11.07;;;;;;;;;;5056608;28;20480;-67
2021/07/23 08:41:26;;;;;;;15.70;10.77;;;;;;;;;;5072806;28;20952;-67
2021/07/23 08:43:52;;;;;;;14.50;9.70;;;;;;;;;;5076450;28;20514;-68
2021/07/23 08:46:18;;;;;;;13.87;10.63;;;;;;;;;;5074424;28;20452;-68
2021/07/23 08:48:44;;;;;;;15.20;10.37;;;;;;;;;;5064481;28;20492;-67
2021/07/23 08:51:10;;;;;;;11.30;8.50;;;;;;;;;;5062032;28;20426;-63
2021/07/23 08:53:37;;;;;;;14.97;9.77;;;;;;;;;;5055824;28;20427;-67
2021/07/23 08:56:03;;;;;;;13.03;10.33;;;;;;;;;;5053336;28;20453;-62
2021/07/23 08:58:30;;;;;;;15.13;10.30;;;;;;;;;;5054380;28;20992;-67
2021/07/23 09:00:58;;;;;;;23.60;9.80;;;;;;;;;;5060067;28;20480;-67
2021/07/23 09:03:31;;;;;;;13.13;9.97;;;;;;;;;;5056521;28;20414;-67
2021/07/23 09:05:58;;;;;;;11.00;8.77;;;;;;;;;;5067727;28;20452;-69
2021/07/23 09:08:24;;;;;;;15.77;9.90;;;;;;;;;;5076303;28;20431;-67
2021/07/23 09:11:10;;;;;;;13.40;11.37;;;;;;;;;;5051964;28;20434;-67
2021/07/23 09:13:36;;;;;;;18.03;9.93;;;;;;;;;;5047551;28;20742;-69
2021/07/23 09:16:02;;;;;;;13.20;10.57;;;;;;;;;;5067502;28;20448;-67
2021/07/23 09:18:31;;;;;;;13.00;9.40;;;;;;;;;;5076320;28;20397;-66
2021/07/23 09:20:57;;;;;;;12.67;9.90;;;;;;;;;;5073980;28;20452;-67
2021/07/23 09:23:33;;;;;;;13.43;9.93;;;;;;;;;;5077482;28;20405;-67
2021/07/23 09:26:14;;;;;;;22.40;15.00;;;;;;;;;;5062376;28;20448;-66
2021/07/23 09:28:47;;;;;;;14.23;10.33;;;;;;;;;;5055637;28;20848;-69
2021/07/23 09:31:23;;;;;;;11.83;9.47;;;;;;;;;;5053558;28;20432;-68
2021/07/23 09:33:53;;;;;;;14.20;10.47;;;;;;;;;;5055528;28;20413;-67
2021/07/23 09:36:19;;;;;;;16.60;10.37;;;;;;;;;;5056149;28;20453;-66
2021/07/23 09:38:46;;;;;;;17.03;10.10;;;;;;;;;;5054716;28;20429;-67
2021/07/23 09:41:13;;;;;;;13.10;10.37;;;;;;;;;;5054531;28;20545;-66
2021/07/23 09:43:39;;;;;;;14.40;10.80;;;;;;;;;;5035412;28;20410;-66
2021/07/23 09:46:20;;;;;;;13.80;10.90;;;;;;;;;;5053468;28;20449;-66
2021/07/23 09:48:47;;;;;;;11.90;9.97;;;;;;;;;;5053793;28;20414;-66
2021/07/23 09:51:13;;;;;;;13.03;10.00;;;;;;;;;;5066984;28;20424;-66
2021/07/23 09:53:39;;;;;;;13.37;10.03;;;;;;;;;;5075007;28;20829;-66
2021/07/23 09:56:06;;;;;;;12.93;10.27;;;;;;;;;;5059875;28;20453;-66
2021/07/23 09:58:35;;;;;;;18.00;10.63;;;;;;;;;;5055444;28;20433;-66
2021/07/23 10:01:03;;;;;;;14.37;11.00;;;;;;;;;;5054160;28;20460;-66
2021/07/23 10:03:30;;;;;;;14.90;10.60;;;;;;;;;;5055025;28;20406;-66
2021/07/23 10:05:59;;;;;;;14.37;10.37;;;;;;;;;;5052935;28;20458;-67
2021/07/23 10:08:29;;;;;;;11.53;9.57;;;;;;;;;;5053240;28;20425;-66
2021/07/23 10:10:56;;;;;;;13.57;10.30;;;;;;;;;;5063120;28;20431;-66
2021/07/23 10:13:23;;;;;;;13.17;10.03;;;;;;;;;;5074575;28;20409;-66
2021/07/23 10:15:50;;;;;;;16.10;10.20;;;;;;;;;;5072523;28;20939;-66
2021/07/23 10:18:17;;;;;;;16.70;10.17;;;;;;;;;;5074634;28;20405;-66
2021/07/23 10:20:46;;;;;;;12.60;10.40;;;;;;;;;;5058659;28;20454;-66
2021/07/23 10:23:12;;;;;;;12.73;10.50;;;;;;;;;;5034683;28;20407;-66
2021/07/23 10:25:38;;;;;;;13.80;10.03;;;;;;;;;;5034709;28;20436;-66
2021/07/23 10:28:04;;;;;;;12.20;9.40;;;;;;;;;;5034547;28;20395;-66
2021/07/23 10:30:34;;;;;;;11.70;8.67;;;;;;;;;;5038179;28;20797;-66
2021/07/23 10:33:01;;;;;;;13.03;10.00;;;;;;;;;;5034247;28;20421;-66
2021/07/23 10:35:27;;;;;;;12.13;9.30;;;;;;;;;;5043315;28;20524;-66
2021/07/23 10:37:54;;;;;;;14.60;10.00;;;;;;;;;;5069840;28;20928;-66
2021/07/23 10:40:21;;;;;;;14.50;10.07;;;;;;;;;;5039042;28;20452;-66
2021/07/23 10:42:47;;;;;;;13.10;9.60;;;;;;;;;;5073902;28;20443;-66
2021/07/23 10:45:16;;;;;;;13.63;10.23;;;;;;;;;;5069209;28;20456;-66
2021/07/23 10:47:42;;;;;;;13.70;9.70;;;;;;;;;;5054131;28;20446;-66
2021/07/23 10:50:09;;;;;;;11.30;10.10;;;;;;;;;;5051668;28;20397;-66
2021/07/23 10:52:37;;;;;;;11.90;9.30;;;;;;;;;;5033941;28;20910;-67
2021/07/23 10:55:09;;;;;;;12.33;9.60;;;;;;;;;;5034306;28;20414;-66
2021/07/23 10:57:35;;;;;;;13.77;9.97;;;;;;;;;;5035242;28;20450;-66
2021/07/23 11:00:01;;;;;;;13.67;10.57;;;;;;;;;;5033403;28;20406;-66
2021/07/23 11:02:30;;;;;;;15.80;9.27;;;;;;;;;;5053664;28;20932;-67
2021/07/23 11:05:08;;;;;;;12.00;10.03;;;;;;;;;;5053709;28;20397;-67
2021/07/23 11:07:34;;;;;;;13.93;9.63;;;;;;;;;;5053385;28;20445;-67
2021/07/23 11:10:00;;;;;;;14.00;9.17;;;;;;;;;;5053659;28;20404;-67
2021/07/23 11:12:36;;;;;;;10.70;9.00;;;;;;;;;;5052130;28;20432;-67
2021/07/23 11:15:03;;;;;;;12.87;9.57;;;;;;;;;;5073647;28;20392;-67
2021/07/23 11:17:30;;;;;;;11.93;9.77;;;;;;;;;;5033916;28;20452;-67
2021/07/23 11:20:02;;;;;;;12.70;9.47;;;;;;;;;;5033620;28;20399;-67
2021/07/23 11:22:36;;;;;;;13.20;10.27;;;;;;;;;;5033607;28;20942;-67
2021/07/23 11:25:05;;;;;;;11.93;9.97;;;;;;;;;;5033572;28;20436;-67
2021/07/23 11:27:33;;;;;;;12.60;9.73;;;;;;;;;;5072028;28;20443;-67
2021/07/23 11:29:59;;;;;;;13.93;9.80;;;;;;;;;;5072093;28;20576;-67
2021/07/23 11:32:27;;;;;;;13.27;9.27;;;;;;;;;;5036009;28;20472;-66
2021/07/23 11:35:13;;;;;;;12.40;9.20;;;;;;;;;;5050461;28;20425;-68
2021/07/23 11:37:39;;;;;;;12.83;9.97;;;;;;;;;;5056184;28;20874;-70
2021/07/23 11:40:11;;;;;;;17.93;9.87;;;;;;;;;;5049864;28;20509;-70
2021/07/23 11:42:41;;;;;;;14.37;9.40;;;;;;;;;;5072704;28;20913;-68
2021/07/23 11:45:12;;;;;;;11.47;9.07;;;;;;;;;;5055916;28;20437;-68
2021/07/23 11:47:43;;;;;;;10.53;9.20;;;;;;;;;;5052844;28;20445;-69
2021/07/23 11:50:24;;;;;;;11.80;9.00;;;;;;;;;;5052936;28;20470;-69
2021/07/23 11:52:58;;;;;;;11.70;9.20;;;;;;;;;;5041677;28;20793;-68
2021/07/23 11:55:24;;;;;;;13.33;9.20;;;;;;;;;;5051841;28;20385;-63
2021/07/23 11:57:50;;;;;;;11.90;9.47;;;;;;;;;;5052178;28;20441;-64
2021/07/23 12:00:22;;;;;;;13.23;9.60;;;;;;;;;;5053091;28;20523;-66
2021/07/23 12:02:50;;;;;;;17.03;12.33;;;;;;;;;;5033465;28;20403;-65
2021/07/23 12:05:16;;;;;;;13.37;10.13;;;;;;;;;;5047970;28;20809;-68
2021/07/23 12:07:45;;;;;;;13.87;10.63;;;;;;;;;;5051622;28;20796;-68
2021/07/23 12:10:14;;;;;;;12.90;9.77;;;;;;;;;;5050918;28;20406;-68
2021/07/23 12:12:41;;;;;;;11.77;9.43;;;;;;;;;;5055149;28;20498;-67
2021/07/23 12:15:11;;;;;;;13.60;10.23;;;;;;;;;;5053000;28;20409;-68
2021/07/23 12:17:41;;;;;;;15.07;10.00;;;;;;;;;;5053563;28;20452;-67
2021/07/23 12:20:07;;;;;;;14.33;10.10;;;;;;;;;;5047746;28;20472;-68
2021/07/23 12:22:34;;;;;;;10.23;8.20;;;;;;;;;;5052432;28;20422;-68
2021/07/23 12:25:13;;;;;;;12.23;8.90;;;;;;;;;;5052425;28;20488;-68
2021/07/23 12:27:39;;;;;;;13.70;9.60;;;;;;;;;;5052563;28;20432;-67
2021/07/23 12:30:06;;;;;;;12.00;9.13;;;;;;;;;;5052544;28;20405;-68
2021/07/23 12:32:32;;;;;;;12.87;8.83;;;;;;;;;;5052122;28;20436;-68
2021/07/23 12:34:58;;;;;;;12.67;9.63;;;;;;;;;;5052587;28;20397;-67
2021/07/23 12:37:25;;;;;;;11.60;8.10;;;;;;;;;;5052064;28;20445;-68
2021/07/23 12:39:58;;;;;;;12.80;9.10;;;;;;;;;;5052518;28;20433;-67
2021/07/23 12:42:27;;;;;;;14.20;8.40;;;;;;;;;;5052147;28;20437;-67
2021/07/23 12:44:53;;;;;;;12.50;8.60;;;;;;;;;;5052499;28;20426;-67
2021/07/23 12:47:20;;;;;;;10.40;8.80;;;;;;;;;;5067304;28;20804;-67
2021/07/23 12:49:47;;;;;;;13.37;7.80;;;;;;;;;;5072667;28;20415;-67
2021/07/23 12:52:14;;;;;;;11.20;7.87;;;;;;;;;;5039220;28;20485;-68
2021/07/23 12:54:50;;;;;;;17.43;9.90;;;;;;;;;;5032692;28;20767;-68
2021/07/23 12:57:31;;;;;;;13.73;9.47;;;;;;;;;;5046406;28;20433;-68
2021/07/23 13:00:16;;;;;;;11.70;8.90;;;;;;;;;;5052264;28;20404;-68
2021/07/23 13:02:42;;;;;;;12.33;10.00;;;;;;;;;;5067704;28;20401;-68
2021/07/23 13:05:08;;;;;;;12.80;7.93;;;;;;;;;;5073276;28;20965;-68
2021/07/23 13:07:35;;;;;;;9.70;8.70;;;;;;;;;;5044154;28;20899;-67
2021/07/23 13:10:02;;;;;;;11.37;8.70;;;;;;;;;;5035832;28;20398;-68
2021/07/23 13:12:28;;;;;;;11.97;9.10;;;;;;;;;;5036792;28;20412;-68
2021/07/23 13:14:54;;;;;;;13.80;9.03;;;;;;;;;;5035790;28;20426;-68
2021/07/23 13:17:20;;;;;;;10.00;7.90;;;;;;;;;;5047806;28;20462;-68
2021/07/23 13:19:46;;;;;;;22.43;10.43;;;;;;;;;;5055515;28;20393;-68
2021/07/23 13:22:14;;;;;;;10.57;8.60;;;;;;;;;;5055468;28;20445;-68
2021/07/23 13:24:40;;;;;;;11.40;8.60;;;;;;;;;;5055525;28;20414;-67
2021/07/23 13:27:06;;;;;;;12.97;9.70;;;;;;;;;;5052397;28;20448;-68
2021/07/23 13:29:32;;;;;;;12.30;9.07;;;;;;;;;;5055549;28;20489;-67
2021/07/23 13:31:58;;;;;;;10.60;8.70;;;;;;;;;;5045359;28;20509;-67
2021/07/23 13:34:24;;;;;;;13.30;9.57;;;;;;;;;;5035306;28;20456;-67
2021/07/23 13:36:51;;;;;;;13.37;8.97;;;;;;;;;;5043379;28;20529;-68
2021/07/23 13:39:25;;;;;;;16.37;9.63;;;;;;;;;;5055259;28;20422;-67
2021/07/23 13:41:52;;;;;;;12.70;9.33;;;;;;;;;;5053542;28;20471;-67
2021/07/23 13:44:19;;;;;;;11.70;8.53;;;;;;;;;;5055432;28;20433;-67
2021/07/23 13:46:45;;;;;;;10.63;8.43;;;;;;;;;;5060697;28;20482;-67
2021/07/23 13:49:11;;;;;;;12.90;9.37;;;;;;;;;;5075181;28;20429;-67
2021/07/23 13:51:37;;;;;;;11.17;7.63;;;;;;;;;;5073184;28;20439;-67
2021/07/23 13:54:03;;;;;;;13.50;9.07;;;;;;;;;;5075221;28;20408;-68
2021/07/23 13:56:31;;;;;;;11.67;8.67;;;;;;;;;;5064408;28;20453;-68
2021/07/23 13:58:57;;;;;;;15.33;9.63;;;;;;;;;;5035149;28;20722;-67
2021/07/23 14:01:23;;;;;;;11.80;8.30;;;;;;;;;;5050118;28;20484;-67
2021/07/23 14:03:49;;;;;;;12.53;8.37;;;;;;;;;;5074645;28;20905;-67
2021/07/23 14:06:15;;;;;;;13.27;9.33;;;;;;;;;;5072251;28;20447;-67
2021/07/23 14:08:41;;;;;;;10.70;8.00;;;;;;;;;;5074762;28;20426;-67
2021/07/23 14:11:07;;;;;;;11.20;8.37;;;;;;;;;;5072639;28;20409;-67
2021/07/23 14:13:33;;;;;;;11.30;8.97;;;;;;;;;;5055273;28;20414;-68
2021/07/23 14:16:00;;;;;;;9.77;8.77;;;;;;;;;;5052736;28;20422;-68
2021/07/23 14:18:26;;;;;;;12.13;8.07;;;;;;;;;;5038790;28;20454;-68
2021/07/23 14:20:54;;;;;;;10.13;7.93;;;;;;;;;;5034431;28;20495;-68